Time;durP1;ratioP1;P1;durP2;ratioP2;P2;SDS_P1;SDS_P2;PMS_P1;PMS_P2;Temp;Humidity;BMP_temperature;BMP_pressure;BME280_temperature;BME280_humidity;BME280_pressure;Samples;Min_cycle;Max_cycle;Signal;HPM_P1;HPM_P2
2020/12/14 00:00:01;;;;;;;11.13;7.45;;;6.00;99.90;;;;;;5087012;28;20021;-91
2020/12/14 00:02:29;;;;;;;10.52;7.70;;;6.00;99.90;;;;;;5083057;28;20039;-91
2020/12/14 00:04:55;;;;;;;10.68;8.23;;;6.00;99.90;;;;;;5091963;28;20488;-91
2020/12/14 00:07:22;;;;;;;9.52;7.35;;;6.00;99.90;;;;;;5094486;28;20036;-91
2020/12/14 00:09:47;;;;;;;9.85;7.57;;;6.00;99.90;;;;;;5094575;28;20123;-91
2020/12/14 00:12:22;;;;;;;10.57;6.70;;;6.00;99.90;;;;;;5091731;28;20122;-91
2020/12/14 00:14:48;;;;;;;10.05;7.20;;;6.10;99.90;;;;;;5093702;28;20055;-91
2020/12/14 00:17:17;;;;;;;10.48;6.95;;;6.00;99.90;;;;;;5093084;28;20024;-90
2020/12/14 00:19:43;;;;;;;11.48;8.07;;;6.00;99.90;;;;;;5080609;28;20082;-90
2020/12/14 00:22:09;;;;;;;12.73;7.60;;;5.90;99.90;;;;;;5094342;28;20024;-91
2020/12/14 00:24:34;;;;;;;10.80;7.43;;;5.80;99.90;;;;;;5074816;28;20028;-90
2020/12/14 00:27:00;;;;;;;9.98;7.75;;;5.80;99.90;;;;;;5093621;28;20031;-91
2020/12/14 00:29:25;;;;;;;11.68;8.20;;;5.80;99.90;;;;;;5094284;28;20032;-91
2020/12/14 00:31:53;;;;;;;8.80;6.95;;;5.80;99.90;;;;;;5093826;28;20496;-91
2020/12/14 00:34:20;;;;;;;7.47;6.45;;;5.70;99.90;;;;;;5087350;28;20036;-91
2020/12/14 00:36:46;;;;;;;8.80;7.53;;;5.70;99.90;;;;;;5094019;28;20089;-90
2020/12/14 00:39:12;;;;;;;10.48;7.28;;;5.70;99.90;;;;;;5088896;28;20027;-91
2020/12/14 00:41:38;;;;;;;11.50;7.22;;;5.80;99.90;;;;;;5087283;28;20020;-91
2020/12/14 00:44:04;;;;;;;11.82;7.50;;;5.60;99.90;;;;;;5075939;28;20064;-91
2020/12/14 00:46:29;;;;;;;12.15;7.18;;;5.70;99.90;;;;;;5094111;28;20024;-91
2020/12/14 00:48:55;;;;;;;9.23;7.13;;;5.70;99.90;;;;;;5090212;28;20025;-90
2020/12/14 00:51:28;;;;;;;10.80;7.20;;;5.70;99.90;;;;;;5091247;28;20085;-91
2020/12/14 00:53:54;;;;;;;12.60;7.65;;;5.70;99.90;;;;;;5093002;28;20028;-91
2020/12/14 00:56:20;;;;;;;10.00;7.05;;;6.30;99.90;;;;;;5093808;28;20024;-91
2020/12/14 00:58:46;;;;;;;10.30;7.10;;;5.70;99.90;;;;;;5092116;28;20107;-90
2020/12/14 01:01:13;;;;;;;8.35;6.57;;;5.60;99.90;;;;;;5074709;28;20480;-91
2020/12/14 01:03:38;;;;;;;8.00;6.45;;;5.60;99.90;;;;;;5079502;28;20032;-90
2020/12/14 01:06:04;;;;;;;9.40;6.75;;;5.60;99.90;;;;;;5093563;28;20491;-91
2020/12/14 01:08:30;;;;;;;8.73;6.72;;;5.60;99.90;;;;;;5086339;28;20032;-91
2020/12/14 01:10:55;;;;;;;9.30;6.80;;;6.00;99.90;;;;;;5078278;28;20084;-91
2020/12/14 01:13:21;;;;;;;10.48;6.90;;;5.60;99.90;;;;;;5091894;28;20055;-91
2020/12/14 01:15:46;;;;;;;7.47;6.18;;;5.70;99.90;;;;;;5082658;28;20020;-91
2020/12/14 01:18:12;;;;;;;8.32;6.47;;;5.60;99.90;;;;;;5091567;28;20016;-91
2020/12/14 01:20:41;;;;;;;9.93;6.60;;;5.60;99.90;;;;;;5090710;28;20036;-91
2020/12/14 01:23:08;;;;;;;9.25;6.78;;;5.80;99.90;;;;;;5093511;28;20097;-90
2020/12/14 01:25:34;;;;;;;9.88;7.15;;;6.10;99.90;;;;;;5080425;28;20029;-91
2020/12/14 01:28:00;;;;;;;8.35;6.70;;;5.70;99.90;;;;;;5078636;28;20028;-91
2020/12/14 01:30:25;;;;;;;11.13;7.15;;;5.70;99.90;;;;;;5091823;28;20031;-91
2020/12/14 01:32:51;;;;;;;9.07;6.40;;;6.10;99.90;;;;;;5077847;28;20381;-90
2020/12/14 01:35:17;;;;;;;8.32;6.68;;;5.70;99.90;;;;;;5093072;28;20039;-90
2020/12/14 01:37:43;;;;;;;7.60;6.32;;;5.70;99.90;;;;;;5086756;28;20025;-91
2020/12/14 01:40:09;;;;;;;8.57;6.40;;;5.60;99.90;;;;;;5074527;28;20036;-91
2020/12/14 01:42:39;;;;;;;9.15;6.40;;;5.60;99.90;;;;;;5081369;28;20024;-90
2020/12/14 01:45:05;;;;;;;8.45;6.25;;;5.60;99.90;;;;;;5083295;28;20055;-91
2020/12/14 01:47:36;;;;;;;9.02;6.38;;;5.90;99.90;;;;;;5082550;28;20112;-91
2020/12/14 01:50:04;;;;;;;9.75;6.45;;;5.70;99.90;;;;;;5081771;28;20028;-91
2020/12/14 01:52:51;;;;;;;8.70;6.20;;;5.70;99.90;;;;;;5092518;28;20027;-90
2020/12/14 01:55:19;;;;;;;9.38;6.57;;;5.70;99.90;;;;;;5084873;28;20032;-91
2020/12/14 01:57:45;;;;;;;7.35;5.95;;;5.70;99.90;;;;;;5086899;28;20397;-90
2020/12/14 02:00:11;;;;;;;7.55;6.25;;;5.60;99.90;;;;;;5081135;28;20070;-90
2020/12/14 02:02:37;;;;;;;8.20;6.15;;;5.60;99.90;;;;;;5086539;28;20078;-90
2020/12/14 02:05:05;;;;;;;10.80;6.93;;;5.60;99.90;;;;;;5080845;28;20107;-90
2020/12/14 02:07:31;;;;;;;8.35;6.05;;;5.70;99.90;;;;;;5092529;28;20056;-90
2020/12/14 02:09:56;;;;;;;9.48;5.82;;;5.70;99.90;;;;;;5091629;28;20074;-91
2020/12/14 02:12:27;;;;;;;8.00;5.80;;;5.70;99.90;;;;;;5090373;28;20105;-91
2020/12/14 02:14:54;;;;;;;7.45;5.85;;;5.70;99.90;;;;;;5091820;28;20124;-89
2020/12/14 02:17:21;;;;;;;10.43;6.20;;;5.70;99.90;;;;;;5081608;28;20035;-90
2020/12/14 02:19:48;;;;;;;8.88;6.00;;;5.80;99.90;;;;;;5092310;28;20162;-90
2020/12/14 02:22:17;;;;;;;7.53;5.43;;;5.60;99.90;;;;;;5092154;28;20058;-90
2020/12/14 02:24:55;;;;;;;7.40;5.35;;;5.70;99.90;;;;;;5076215;28;20403;-90
2020/12/14 02:27:21;;;;;;;7.00;5.55;;;5.70;99.90;;;;;;5087098;28;20530;-90
2020/12/14 02:29:47;;;;;;;7.70;5.60;;;5.90;99.90;;;;;;5092306;28;20031;-90
2020/12/14 02:32:15;;;;;;;6.03;5.38;;;6.40;99.90;;;;;;5085369;28;20025;-90
2020/12/14 02:34:42;;;;;;;5.78;4.90;;;5.80;99.90;;;;;;5072743;28;20082;-90
2020/12/14 02:37:10;;;;;;;6.53;5.30;;;5.90;99.90;;;;;;5072348;28;20032;-91
2020/12/14 02:39:37;;;;;;;8.88;4.80;;;5.90;99.90;;;;;;5072411;28;20495;-90
2020/12/14 02:42:14;;;;;;;6.95;4.72;;;5.90;99.90;;;;;;5085594;28;20029;-90
2020/12/14 02:44:41;;;;;;;5.25;4.70;;;6.00;99.90;;;;;;5092089;28;20092;-90
2020/12/14 02:47:07;;;;;;;6.30;4.80;;;6.10;99.90;;;;;;5084957;28;20082;-91
2020/12/14 02:49:34;;;;;;;5.85;4.55;;;6.00;99.90;;;;;;5083632;28;20035;-90
2020/12/14 02:52:00;;;;;;;6.45;4.78;;;6.10;99.90;;;;;;5092310;28;20055;-90
2020/12/14 02:54:26;;;;;;;7.65;5.00;;;6.20;99.90;;;;;;5092277;28;20048;-90
2020/12/14 02:56:51;;;;;;;7.10;5.13;;;6.10;99.90;;;;;;5080221;28;20028;-90
2020/12/14 02:59:18;;;;;;;6.32;4.90;;;6.00;99.90;;;;;;5085236;28;20560;-90
2020/12/14 03:01:44;;;;;;;8.88;4.63;;;6.10;99.90;;;;;;5091828;28;20054;-90
2020/12/14 03:04:10;;;;;;;6.15;4.53;;;6.10;99.90;;;;;;5092129;28;20480;-90
2020/12/14 03:06:35;;;;;;;5.80;4.40;;;6.00;99.90;;;;;;5091833;28;20054;-90
2020/12/14 03:09:01;;;;;;;6.47;4.40;;;6.00;99.90;;;;;;5085973;28;20024;-90
2020/12/14 03:11:27;;;;;;;7.55;4.45;;;6.00;99.90;;;;;;5077655;28;20032;-91
2020/12/14 03:13:53;;;;;;;6.00;4.78;;;6.00;99.90;;;;;;5087232;28;20058;-90
2020/12/14 03:16:18;;;;;;;6.10;4.30;;;6.00;99.90;;;;;;5087659;28;20122;-91
2020/12/14 03:18:45;;;;;;;4.95;4.30;;;6.00;99.90;;;;;;5084855;28;20051;-90
2020/12/14 03:21:11;;;;;;;6.47;4.70;;;6.60;99.90;;;;;;5083479;28;20023;-90
2020/12/14 03:23:36;;;;;;;5.03;4.35;;;6.10;99.90;;;;;;5090279;28;20107;-90
2020/12/14 03:26:02;;;;;;;5.60;4.05;;;6.10;99.90;;;;;;5077216;28;20511;-91
2020/12/14 03:28:27;;;;;;;5.95;4.20;;;6.10;99.90;;;;;;5082103;28;20412;-91
2020/12/14 03:30:53;;;;;;;6.47;3.83;;;6.60;99.90;;;;;;5092492;28;20108;-90
2020/12/14 03:33:19;;;;;;;6.07;4.15;;;6.20;99.90;;;;;;5092582;28;20021;-90
2020/12/14 03:35:47;;;;;;;5.88;3.72;;;6.20;99.90;;;;;;5095535;28;20032;-90
2020/12/14 03:38:16;;;;;;;5.40;4.00;;;6.70;99.90;;;;;;5094341;28;20034;-90
2020/12/14 03:40:43;;;;;;;4.82;4.22;;;6.40;99.90;;;;;;5085748;28;20036;-90
2020/12/14 03:43:09;;;;;;;6.20;4.47;;;6.40;99.90;;;;;;5093418;28;20049;-90
2020/12/14 03:45:34;;;;;;;6.97;4.07;;;6.40;99.90;;;;;;5089081;28;20028;-90
2020/12/14 03:48:00;;;;;;;6.13;4.45;;;6.40;99.90;;;;;;5094426;28;20031;-90
2020/12/14 03:50:26;;;;;;;7.57;4.50;;;6.90;99.90;;;;;;5095190;28;20050;-91
2020/12/14 03:52:52;;;;;;;6.93;4.50;;;6.30;99.90;;;;;;5094342;28;20027;-90
2020/12/14 03:55:17;;;;;;;6.38;4.45;;;6.30;99.90;;;;;;5094363;28;20119;-91
2020/12/14 03:57:43;;;;;;;5.07;3.90;;;6.50;99.90;;;;;;5088500;28;20024;-90
2020/12/14 04:00:09;;;;;;;5.78;4.18;;;6.80;99.90;;;;;;5091936;28;20020;-91
2020/12/14 04:02:55;;;;;;;5.50;4.30;;;6.10;99.90;;;;;;5093551;28;20016;-90
2020/12/14 04:05:20;;;;;;;5.95;4.40;;;6.00;99.90;;;;;;5088159;28;20040;-91
2020/12/14 04:07:46;;;;;;;5.78;4.20;;;5.90;99.90;;;;;;5095169;28;20090;-90
2020/12/14 04:10:12;;;;;;;6.47;4.22;;;5.90;99.90;;;;;;5089598;28;20024;-90
2020/12/14 04:12:37;;;;;;;6.28;4.20;;;6.20;99.90;;;;;;5087049;28;20568;-90
2020/12/14 04:15:03;;;;;;;6.57;4.63;;;5.90;99.90;;;;;;5087537;28;20020;-90
2020/12/14 04:17:29;;;;;;;4.82;4.20;;;5.90;99.90;;;;;;5092735;28;20115;-90
2020/12/14 04:19:55;;;;;;;5.53;4.38;;;5.90;99.90;;;;;;5094531;28;20016;-90
2020/12/14 04:22:21;;;;;;;5.88;4.35;;;5.90;99.90;;;;;;5094838;28;20024;-91
2020/12/14 04:24:46;;;;;;;6.38;4.70;;;5.90;99.90;;;;;;5093424;28;20024;-91
2020/12/14 04:27:12;;;;;;;6.18;4.78;;;6.50;99.90;;;;;;5093922;28;20032;-90
2020/12/14 04:29:38;;;;;;;7.13;4.47;;;6.50;99.90;;;;;;5089714;28;20028;-91
2020/12/14 04:32:03;;;;;;;6.97;4.68;;;6.00;99.90;;;;;;5086103;28;20055;-90
2020/12/14 04:34:29;;;;;;;7.57;4.60;;;6.60;99.90;;;;;;5081750;28;20028;-90
2020/12/14 04:36:55;;;;;;;7.03;5.00;;;6.00;99.90;;;;;;5090204;28;20020;-91
2020/12/14 04:39:20;;;;;;;7.07;4.65;;;6.10;99.90;;;;;;5077620;28;20052;-91
2020/12/14 04:41:46;;;;;;;7.55;4.53;;;6.10;99.90;;;;;;5086993;28;20021;-91
2020/12/14 04:44:12;;;;;;;6.18;4.47;;;6.10;99.90;;;;;;5088713;28;20021;-90
2020/12/14 04:46:38;;;;;;;8.05;4.85;;;6.10;99.90;;;;;;5093628;28;20024;-91
2020/12/14 04:49:08;;;;;;;5.60;4.60;;;6.10;99.90;;;;;;5082646;28;20488;-91
2020/12/14 04:51:37;;;;;;;5.38;4.75;;;6.00;99.90;;;;;;5092549;28;20051;-90
2020/12/14 04:54:04;;;;;;;6.22;4.88;;;6.00;99.90;;;;;;5088273;28;20179;-91
2020/12/14 04:56:30;;;;;;;6.10;4.78;;;6.00;99.90;;;;;;5076446;28;20029;-91
2020/12/14 04:58:58;;;;;;;5.70;4.45;;;5.90;99.90;;;;;;5092795;28;20027;-90
2020/12/14 05:01:24;;;;;;;6.40;4.90;;;6.30;99.90;;;;;;5092478;28;20031;-90
2020/12/14 05:03:50;;;;;;;5.80;4.40;;;5.80;99.90;;;;;;5089319;28;20111;-91
2020/12/14 05:06:16;;;;;;;7.78;4.93;;;5.80;99.90;;;;;;5089648;28;20028;-90
2020/12/14 05:08:42;;;;;;;6.20;4.38;;;5.70;99.90;;;;;;5093594;28;20031;-91
2020/12/14 05:11:10;;;;;;;6.47;4.68;;;5.70;99.90;;;;;;5093559;28;20383;-91
2020/12/14 05:13:36;;;;;;;7.07;5.10;;;5.70;99.90;;;;;;5093402;28;20048;-91
2020/12/14 05:16:02;;;;;;;5.45;4.88;;;5.80;99.90;;;;;;5093195;28;20020;-91
2020/12/14 05:18:28;;;;;;;6.25;4.47;;;5.70;99.90;;;;;;5089840;28;20495;-91
2020/12/14 05:21:04;;;;;;;6.35;4.63;;;5.80;99.90;;;;;;5087391;28;20031;-91
2020/12/14 05:23:31;;;;;;;6.43;4.43;;;5.80;99.90;;;;;;5092839;28;20020;-91
2020/12/14 05:26:08;;;;;;;6.38;4.53;;;5.80;99.90;;;;;;5093306;28;20038;-91
2020/12/14 05:28:34;;;;;;;5.70;4.22;;;6.30;99.90;;;;;;5093183;28;20016;-90
2020/12/14 05:31:00;;;;;;;5.07;4.35;;;5.90;99.90;;;;;;5084910;28;20024;-91
2020/12/14 05:33:28;;;;;;;6.82;4.75;;;5.90;99.90;;;;;;5092983;28;20026;-91
2020/12/14 05:35:54;;;;;;;6.30;4.10;;;5.80;99.90;;;;;;5076576;28;20049;-91
2020/12/14 05:38:21;;;;;;;4.93;3.97;;;5.90;99.90;;;;;;5088083;28;20100;-91
2020/12/14 05:40:50;;;;;;;6.00;4.70;;;5.80;99.90;;;;;;5092645;28;20127;-91
2020/12/14 05:43:18;;;;;;;5.72;4.47;;;5.90;99.90;;;;;;5093023;28;20031;-91
2020/12/14 05:45:45;;;;;;;5.25;4.50;;;5.80;99.90;;;;;;5090706;28;20024;-91
2020/12/14 05:48:27;;;;;;;7.97;5.40;;;6.10;99.90;;;;;;5092704;28;20016;-91
2020/12/14 05:51:04;;;;;;;7.93;6.20;;;5.90;99.90;;;;;;5086189;28;20035;-91
2020/12/14 05:53:45;;;;;;;7.20;5.47;;;5.90;99.90;;;;;;5093029;28;20114;-91
2020/12/14 05:56:10;;;;;;;8.73;5.82;;;6.00;99.90;;;;;;5094048;28;20042;-91
2020/12/14 05:58:38;;;;;;;7.55;5.55;;;6.10;99.90;;;;;;5092391;28;20023;-91
2020/12/14 06:01:06;;;;;;;8.32;5.47;;;6.10;99.90;;;;;;5081851;28;20438;-91
2020/12/14 06:03:32;;;;;;;8.13;5.65;;;6.10;99.90;;;;;;5087812;28;20408;-91
2020/12/14 06:06:02;;;;;;;6.45;5.68;;;6.10;99.90;;;;;;5083395;28;20032;-91
2020/12/14 06:08:46;;;;;;;6.25;4.90;;;6.10;99.90;;;;;;5092696;28;20554;-90
2020/12/14 06:11:13;;;;;;;5.75;4.68;;;6.20;99.90;;;;;;5072579;28;20027;-91
2020/12/14 06:13:53;;;;;;;6.53;4.65;;;6.20;99.90;;;;;;5081826;28;20070;-90
2020/12/14 06:16:20;;;;;;;5.50;4.28;;;6.20;99.90;;;;;;5076377;28;20066;-91
2020/12/14 06:18:46;;;;;;;5.85;4.47;;;6.20;99.90;;;;;;5089445;28;20020;-91
2020/12/14 06:21:32;;;;;;;6.85;4.53;;;6.20;99.90;;;;;;5076965;28;20031;-90
2020/12/14 06:24:00;;;;;;;6.18;4.32;;;6.20;99.90;;;;;;5092302;28;20508;-90
2020/12/14 06:26:26;;;;;;;6.18;4.30;;;6.30;99.90;;;;;;5079289;28;20044;-91
2020/12/14 06:28:54;;;;;;;6.30;4.75;;;6.20;99.90;;;;;;5084507;28;20032;-91
2020/12/14 06:31:37;;;;;;;6.45;4.53;;;6.10;99.90;;;;;;5073789;28;20041;-90
2020/12/14 06:34:05;;;;;;;8.68;4.65;;;6.40;99.90;;;;;;5081883;28;20055;-91
2020/12/14 06:36:41;;;;;;;5.50;4.50;;;6.00;99.90;;;;;;5082311;28;20101;-91
2020/12/14 06:39:37;;;;;;;5.90;4.38;;;6.00;99.90;;;;;;5091919;28;20038;-91
2020/12/14 06:42:09;;;;;;;6.78;4.50;;;6.00;99.90;;;;;;5091488;28;20062;-91
2020/12/14 06:44:43;;;;;;;7.55;4.40;;;6.00;99.90;;;;;;5088155;28;20024;-90
2020/12/14 06:47:16;;;;;;;6.82;4.28;;;6.10;99.90;;;;;;5078198;28;20043;-91
2020/12/14 06:49:43;;;;;;;7.32;4.70;;;6.10;99.90;;;;;;5091527;28;20487;-90
2020/12/14 06:52:09;;;;;;;7.03;4.35;;;6.10;99.90;;;;;;5076463;28;20039;-91
2020/12/14 06:54:48;;;;;;;5.95;4.20;;;6.30;99.90;;;;;;5073841;28;20103;-90
2020/12/14 06:57:16;;;;;;;9.15;4.40;;;6.10;99.90;;;;;;5089522;28;20081;-93
2020/12/14 06:59:50;;;;;;;6.15;4.60;;;6.10;99.90;;;;;;5088005;28;20526;-90
2020/12/14 07:02:41;;;;;;;7.03;4.72;;;6.60;99.90;;;;;;5093921;28;20028;-90
2020/12/14 07:05:29;;;;;;;6.15;4.15;;;6.20;99.90;;;;;;5088840;28;20035;-90
2020/12/14 07:07:55;;;;;;;7.85;4.75;;;6.20;99.90;;;;;;5080328;28;20035;-89
2020/12/14 07:10:29;;;;;;;8.60;4.60;;;6.20;99.90;;;;;;5096045;28;20024;-89
2020/12/14 07:12:58;;;;;;;7.70;5.15;;;6.60;99.90;;;;;;5080259;28;20070;-94
2020/12/14 07:15:26;;;;;;;8.93;5.50;;;6.30;99.90;;;;;;5087874;28;20069;-90
2020/12/14 07:18:02;;;;;;;7.07;5.00;;;6.40;99.90;;;;;;5078330;28;20032;-90
2020/12/14 07:20:28;;;;;;;8.77;4.28;;;6.40;99.90;;;;;;5095196;28;20499;-91
2020/12/14 07:23:07;;;;;;;7.05;4.70;;;6.50;99.90;;;;;;5094811;28;20035;-90
2020/12/14 07:25:33;;;;;;;5.20;4.07;;;6.50;99.90;;;;;;5094203;28;20024;-91
2020/12/14 07:28:00;;;;;;;5.93;4.10;;;7.00;99.90;;;;;;5092150;28;20042;-90
2020/12/14 07:30:25;;;;;;;5.43;4.07;;;6.70;99.90;;;;;;5095233;28;20055;-90
2020/12/14 07:32:51;;;;;;;4.20;3.53;;;6.70;99.90;;;;;;5094739;28;20040;-90
2020/12/14 07:35:20;;;;;;;4.80;3.33;;;6.80;99.90;;;;;;5093763;28;20028;-90
2020/12/14 07:37:46;;;;;;;4.55;3.38;;;7.50;99.90;;;;;;5088869;28;20028;-89
2020/12/14 07:40:12;;;;;;;4.07;3.17;;;7.10;99.90;;;;;;5089052;28;20035;-90
2020/12/14 07:42:46;;;;;;;5.38;3.03;;;7.10;99.90;;;;;;5089737;28;20024;-88
2020/12/14 07:45:19;;;;;;;4.78;2.80;;;7.20;99.90;;;;;;5088289;28;20016;-88
2020/12/14 07:47:47;;;;;;;5.20;3.03;;;7.40;99.90;;;;;;5094251;28;20122;-88
2020/12/14 07:50:18;;;;;;;4.28;3.20;;;7.60;99.90;;;;;;5075964;28;20028;-89
2020/12/14 07:52:49;;;;;;;7.35;3.13;;;8.00;99.90;;;;;;5076392;28;20037;-88
2020/12/14 07:55:15;;;;;;;4.85;3.42;;;7.60;99.90;;;;;;5074359;28;20369;-90
2020/12/14 07:57:44;;;;;;;6.68;3.42;;;7.80;99.90;;;;;;5091427;28;20111;-89
2020/12/14 08:00:24;;;;;;;4.07;3.03;;;8.30;99.90;;;;;;5094329;28;20044;-90
2020/12/14 08:02:51;;;;;;;4.43;2.83;;;8.70;99.90;;;;;;5081008;28;20059;-91
2020/12/14 08:05:19;;;;;;;6.05;2.55;;;9.00;99.90;;;;;;5077362;28;20059;-91
2020/12/14 08:07:50;;;;;;;4.45;2.72;;;9.90;99.90;;;;;;5094073;28;20032;-90
2020/12/14 08:10:30;;;;;;;3.55;2.67;;;10.60;99.90;;;;;;5084372;28;20020;-94
2020/12/14 08:13:00;;;;;;;3.65;2.53;;;10.90;99.90;;;;;;5074138;28;20052;-91
2020/12/14 08:15:29;;;;;;;4.30;2.83;;;10.90;99.90;;;;;;5086722;28;20024;-92
2020/12/14 08:17:55;;;;;;;4.80;2.80;;;10.30;99.90;;;;;;5094122;28;20046;-91
2020/12/14 08:20:29;;;;;;;4.25;3.00;;;10.70;99.90;;;;;;5093948;28;20028;-92
2020/12/14 08:22:58;;;;;;;3.10;2.67;;;11.10;99.90;;;;;;5094081;28;20035;-92
2020/12/14 08:25:26;;;;;;;3.15;2.38;;;12.40;99.90;;;;;;5090568;28;20139;-93
2020/12/14 08:27:56;;;;;;;10.32;3.55;;;15.60;99.90;;;;;;5094422;28;20020;-92
2020/12/14 08:30:23;;;;;;;3.47;2.50;;;18.30;99.90;;;;;;5090490;28;20024;-94
2020/12/14 08:33:19;;;;;;;3.65;2.58;;;20.20;99.90;;;;;;5074516;28;20029;-96
2020/12/14 08:35:49;;;;;;;5.68;2.95;;;21.50;99.90;;;;;;5088308;28;20034;-86
2020/12/14 08:38:17;;;;;;;3.28;2.47;;;20.70;99.90;;;;;;5094224;28;20024;-95
2020/12/14 08:40:58;;;;;;;7.40;2.67;;;20.10;99.90;;;;;;5094619;28;20488;-90
2020/12/14 08:43:27;;;;;;;4.20;3.13;;;20.40;99.90;;;;;;5092557;28;20024;-91
2020/12/14 08:46:03;;;;;;;3.20;2.90;;;18.80;99.90;;;;;;5094298;28;20016;-90
2020/12/14 08:48:31;;;;;;;4.70;3.08;;;17.50;99.90;;;;;;5093358;28;20541;-92
2020/12/14 08:51:14;;;;;;;4.72;3.22;;;17.80;99.90;;;;;;5088530;28;20031;-96
2020/12/14 08:53:41;;;;;;;5.78;2.80;;;19.50;99.90;;;;;;5073837;28;20043;-96
2020/12/14 08:56:17;;;;;;;3.90;2.50;;;17.20;99.90;;;;;;5077302;28;20021;-96
2020/12/14 08:59:12;;;;;;;4.13;2.13;;;14.80;99.90;;;;;;5085588;28;20060;-96
2020/12/14 09:01:37;;;;;;;3.70;1.95;;;13.90;99.90;;;;;;5047838;28;20032;-93
2020/12/14 09:04:05;;;;;;;4.47;2.45;;;12.90;99.90;;;;;;5061531;28;20162;-93
2020/12/14 09:06:31;;;;;;;3.53;2.28;;;11.90;99.90;;;;;;5078252;28;20032;-95
2020/12/14 09:09:11;;;;;;;3.13;2.50;;;11.40;99.90;;;;;;5076000;28;20039;-96
2020/12/14 09:11:48;;;;;;;4.68;3.08;;;10.90;99.90;;;;;;5076802;28;20039;-96
2020/12/14 09:14:31;;;;;;;5.28;2.78;;;10.60;99.90;;;;;;5086772;28;20048;-96
2020/12/14 09:17:04;;;;;;;4.55;3.05;;;10.60;99.90;;;;;;5088023;28;20052;-96
2020/12/14 09:19:32;;;;;;;4.55;3.13;;;10.60;99.90;;;;;;5078405;28;20027;-96
2020/12/14 09:21:59;;;;;;;4.13;2.88;;;10.60;99.90;;;;;;5075200;28;20035;-96
2020/12/14 09:24:30;;;;;;;3.83;2.90;;;10.50;99.90;;;;;;5079215;28;20066;-96
2020/12/14 09:27:02;;;;;;;3.67;2.70;;;10.70;99.90;;;;;;5081941;28;20043;-96
2020/12/14 09:29:30;;;;;;;4.88;3.03;;;10.80;99.90;;;;;;5069078;28;20012;-96
2020/12/14 09:35:18;;;;;;;4.10;2.95;;;11.30;99.90;;;;;;5079303;28;20039;-96
2020/12/14 09:37:43;;;;;;;5.32;3.42;;;11.60;99.90;;;;;;5058962;28;20117;-95
2020/12/14 09:40:09;;;;;;;4.10;2.63;;;11.70;99.90;;;;;;5072671;28;20182;-93
2020/12/14 09:42:35;;;;;;;3.42;2.65;;;11.90;99.90;;;;;;5073056;28;20464;-94
2020/12/14 09:45:00;;;;;;;5.90;3.10;;;11.80;99.90;;;;;;5073061;28;20423;-95
2020/12/14 09:47:26;;;;;;;3.95;2.70;;;11.60;99.90;;;;;;5091484;28;20039;-95
2020/12/14 09:49:52;;;;;;;5.28;2.88;;;11.70;99.90;;;;;;5093234;28;20024;-95
2020/12/14 09:52:17;;;;;;;8.23;3.20;;;11.50;99.90;;;;;;5093292;28;20096;-96
2020/12/14 09:54:43;;;;;;;4.57;3.33;;;11.80;99.90;;;;;;5093216;28;20031;-95
2020/12/14 09:57:08;;;;;;;4.18;2.85;;;12.20;99.90;;;;;;5093273;28;20020;-94
2020/12/14 09:59:34;;;;;;;5.70;3.17;;;12.50;99.90;;;;;;5093190;28;20400;-95
2020/12/14 10:08:43;;;;;;;5.63;3.05;;;15.10;99.90;;;;;;5094331;28;20046;-95
2020/12/14 10:14:31;;;;;;;4.30;3.03;;;15.60;99.90;;;;;;5085691;28;20135;-95
2020/12/14 10:16:57;;;;;;;6.50;3.40;;;16.70;99.90;;;;;;5093197;28;20131;-94
2020/12/14 10:19:23;;;;;;;4.05;3.40;;;17.70;99.90;;;;;;5092896;28;20016;-95
2020/12/14 10:21:48;;;;;;;4.72;3.17;;;19.20;99.90;;;;;;5092789;28;20038;-94
2020/12/14 10:24:14;;;;;;;3.92;2.72;;;20.10;99.90;;;;;;5092885;28;20024;-94
2020/12/14 10:26:40;;;;;;;3.38;2.63;;;20.80;99.90;;;;;;5092716;28;20030;-95
2020/12/14 10:29:05;;;;;;;5.55;2.55;;;20.30;99.90;;;;;;5093240;28;20395;-96
2020/12/14 10:31:31;;;;;;;3.55;2.53;;;20.90;99.90;;;;;;5093060;28;20032;-96
2020/12/14 10:33:59;;;;;;;2.90;2.20;;;20.40;99.90;;;;;;5096151;28;20533;-96
2020/12/14 10:36:25;;;;;;;5.20;2.33;;;21.00;99.90;;;;;;5098640;28;20560;-95
2020/12/14 10:38:53;;;;;;;3.20;2.20;;;20.70;99.90;;;;;;5097472;28;20055;-95
2020/12/14 10:41:19;;;;;;;3.95;2.15;;;21.10;99.90;;;;;;5096942;28;20028;-95
2020/12/14 10:43:45;;;;;;;2.83;2.00;;;21.50;99.90;;;;;;5096989;28;20020;-94
2020/12/14 10:46:11;;;;;;;4.07;2.10;;;22.10;99.90;;;;;;5096520;28;20521;-94
2020/12/14 10:48:36;;;;;;;2.22;1.88;;;21.60;99.90;;;;;;5096512;28;20027;-93
2020/12/14 10:51:02;;;;;;;2.20;1.80;;;20.70;99.90;;;;;;5096371;28;20028;-94
2020/12/14 10:53:28;;;;;;;2.40;1.70;;;21.60;99.90;;;;;;5096427;28;20464;-95
2020/12/14 10:55:54;;;;;;;7.07;2.40;;;22.20;99.90;;;;;;5096220;28;20030;-93
2020/12/14 10:58:19;;;;;;;2.92;2.15;;;22.20;99.90;;;;;;5098140;28;20016;-96
2020/12/14 11:00:45;;;;;;;2.53;1.90;;;22.60;99.90;;;;;;5085306;28;20091;-94
2020/12/14 11:03:11;;;;;;;3.47;1.90;;;21.70;99.90;;;;;;5096402;28;20021;-94
2020/12/14 11:05:36;;;;;;;3.63;1.90;;;19.40;99.90;;;;;;5091545;28;20020;-93
2020/12/14 11:08:04;;;;;;;3.13;1.60;;;18.00;99.90;;;;;;5091038;28;20073;-93
2020/12/14 11:10:29;;;;;;;2.08;1.60;;;19.70;99.90;;;;;;5092166;28;20032;-90
2020/12/14 11:12:55;;;;;;;2.92;1.85;;;22.50;99.90;;;;;;5089249;28;20506;-92
2020/12/14 11:15:21;;;;;;;2.40;1.60;;;23.70;99.90;;;;;;5093689;28;20050;-91
2020/12/14 11:17:46;;;;;;;3.75;1.77;;;23.10;99.90;;;;;;5094407;28;20500;-91
2020/12/14 11:20:15;;;;;;;1.95;1.50;;;22.10;99.90;;;;;;5093867;28;20016;-91
2020/12/14 11:22:40;;;;;;;2.70;1.70;;;22.20;99.90;;;;;;5095650;28;20070;-93
2020/12/14 11:25:07;;;;;;;2.88;1.92;;;23.50;99.90;;;;;;5080350;28;20037;-90
2020/12/14 11:27:34;;;;;;;1.98;1.75;;;23.60;99.90;;;;;;5091486;28;20028;-92
2020/12/14 11:29:59;;;;;;;2.20;1.60;;;24.10;99.90;;;;;;5092114;28;20031;-92
2020/12/14 11:32:27;;;;;;;1.92;1.60;;;23.70;99.90;;;;;;5095016;28;20024;-95
2020/12/14 11:34:53;;;;;;;4.32;2.15;;;24.10;99.90;;;;;;5096607;28;20032;-94
2020/12/14 11:37:18;;;;;;;4.15;2.10;;;23.30;99.90;;;;;;5094291;28;20031;-93
2020/12/14 11:39:45;;;;;;;5.45;2.08;;;22.20;99.90;;;;;;5084997;28;20025;-93
2020/12/14 11:42:10;;;;;;;3.22;1.85;;;24.20;99.90;;;;;;5091854;28;20046;-94
2020/12/14 11:48:59;;;;;;;1.77;1.50;;;20.60;99.90;;;;;;5050642;28;20036;-96
2020/12/14 11:51:30;;;;;;;2.75;1.63;;;18.60;99.90;;;;;;5035114;28;20092;-96
2020/12/14 11:53:59;;;;;;;2.03;1.50;;;17.70;99.90;;;;;;5127402;22;20037;-96
2020/12/14 11:56:25;;;;;;;3.92;1.63;;;16.70;99.90;;;;;;5057516;28;20033;-95
2020/12/14 11:58:50;;;;;;;3.88;1.65;;;16.20;99.90;;;;;;5043421;28;20128;-93
2020/12/14 12:01:21;;;;;;;2.03;1.42;;;16.00;99.90;;;;;;5035527;28;20045;-90
2020/12/14 12:03:46;;;;;;;2.13;1.40;;;15.80;99.90;;;;;;5029914;28;20473;-88
2020/12/14 12:06:12;;;;;;;1.67;1.27;;;15.80;99.90;;;;;;5017523;28;20048;-93
2020/12/14 12:08:37;;;;;;;2.22;1.25;;;15.80;99.90;;;;;;5027760;28;20033;-90
2020/12/14 12:11:03;;;;;;;2.97;1.67;;;15.70;99.90;;;;;;5014711;28;20018;-89
2020/12/14 12:13:32;;;;;;;3.15;1.70;;;16.40;99.90;;;;;;5007616;28;20033;-91
2020/12/14 12:15:58;;;;;;;1.80;1.48;;;17.20;99.90;;;;;;5028480;28;20087;-86
2020/12/14 12:18:24;;;;;;;2.22;1.30;;;17.20;99.90;;;;;;5034052;28;20037;-84
2020/12/14 12:20:49;;;;;;;1.98;1.58;;;16.90;99.90;;;;;;5029147;28;20025;-90
2020/12/14 12:23:15;;;;;;;3.30;1.40;;;16.50;99.90;;;;;;5029207;28;20025;-89
2020/12/14 12:25:41;;;;;;;3.53;1.70;;;16.30;99.90;;;;;;5028725;28;20485;-89
2020/12/14 12:28:06;;;;;;;1.77;1.60;;;16.20;99.90;;;;;;5034142;28;20025;-90
2020/12/14 12:30:34;;;;;;;1.95;1.30;;;17.30;99.90;;;;;;5027736;28;20030;-89
2020/12/14 12:33:02;;;;;;;3.72;1.60;;;17.50;99.90;;;;;;5029284;28;20033;-89
2020/12/14 12:35:27;;;;;;;3.50;1.60;;;17.10;99.90;;;;;;5007004;28;20076;-90
2020/12/14 12:37:53;;;;;;;2.63;1.70;;;16.30;99.90;;;;;;5016848;28;20096;-89
2020/12/14 12:40:19;;;;;;;2.10;1.63;;;16.10;99.90;;;;;;5034023;28;20099;-90
2020/12/14 12:42:45;;;;;;;2.08;1.70;;;15.70;99.90;;;;;;5029098;28;20095;-90
2020/12/14 12:45:10;;;;;;;2.72;1.60;;;15.70;99.90;;;;;;5033287;28;20025;-91
2020/12/14 12:47:36;;;;;;;4.75;2.10;;;15.80;99.90;;;;;;5027607;28;20083;-92
2020/12/14 12:50:02;;;;;;;3.95;1.90;;;15.40;99.90;;;;;;5033488;28;20444;-89
2020/12/14 12:52:27;;;;;;;2.08;1.60;;;15.20;99.90;;;;;;5009801;28;20034;-92
2020/12/14 12:54:53;;;;;;;2.65;1.60;;;14.90;99.90;;;;;;5022746;28;20026;-89
2020/12/14 12:57:19;;;;;;;2.13;1.48;;;14.90;99.90;;;;;;5033749;28;20032;-90
2020/12/14 12:59:44;;;;;;;3.60;1.30;;;14.90;99.90;;;;;;5028481;28;20053;-90
2020/12/14 13:02:10;;;;;;;2.72;1.48;;;14.70;99.90;;;;;;5021981;28;20438;-89
2020/12/14 13:04:36;;;;;;;2.03;1.42;;;14.60;99.90;;;;;;5013584;28;20094;-90
2020/12/14 13:07:08;;;;;;;2.72;1.40;;;14.50;99.90;;;;;;5033404;28;20029;-90
2020/12/14 13:09:33;;;;;;;2.83;1.48;;;15.00;99.90;;;;;;5027146;28;20061;-90
2020/12/14 13:12:08;;;;;;;2.97;1.20;;;15.10;99.90;;;;;;5033201;28;20056;-92
2020/12/14 13:14:34;;;;;;;1.75;1.40;;;14.90;99.90;;;;;;5026835;28;20032;-92